Starke, FL (32091)

3:14 PM EST on December 06, 2016 (GMT -0500)
Kingsley Lake | | Change Station

Elev 193 ft 29.97 °N, 82.01 °W | Updated 8 minutes ago

Clear
Clear
79.7 °F
Feels Like 81 °F
N
8.9
Wind Variable Wind from SW

Today
High -- | Low -- °F
--% Chance of Precip.
Yesterday
High -- | Low -- °F
Precip. -- in
Pressure 29.80 in
Visibility 10.0 miles
Clouds Clear
Heat Index 81 °F
Dew Point 64 °F
Humidity 59%
Rainfall in
Snow Depth Not available.
7:10 AM 5:28 PM
Waxing Crescent, 44% visible
METAR KGNV 061953Z 24019G25KT 10SM CLR 27/15 A2981 RMK AO2 PK WND 25031/1929 SLP091 T02670150
Pressure 29.80 in
Visibility 10.0 miles
Clouds Clear
Heat Index 81 °F
Dew Point 64 °F
Humidity 59%
Rainfall in
Snow Depth Not available.
7:10 AM 5:28 PM
Waxing Crescent, 44% visible
METAR KGNV 061953Z 24019G25KT 10SM CLR 27/15 A2981 RMK AO2 PK WND 25031/1929 SLP091 T02670150

10-Day Weather Forecast

Almanac

Astronomy

Dec. 06, 2016 Rise Set
Actual Time
Civil Twilight
Nautical Twilight
Astronomical Twilight
Moon
Length of Visible Light
Length of Day
Tomorrow will be .
, % of the Moon is Illuminated

Today's Extremes

State Highs State Lows

Community

WunderPhotos

Upload Photos

1,956,022 photos uploaded!

WunderBlog® & News

Nearby

Air Quality

  Air Quality AQ Index Pollutant
Not available.

Snow Depth

Station Depth Elevation

Earthquake Activity

City Distance Mag. Time & Date
Minimum magnitude displayed is 2.5.

Coastal Water Temperatures

Place Temperature

Stations

Nearby Weather Stations

Station Location Temp. Windchill Dew Point Humidity Wind Precip. Elev Updated Type
                   

Watches & Warnings

There are currently no watches in effect.